sensor_id;sensor_type;location;lat;lon;timestamp;P1;durP1;ratioP1;P2;durP2;ratioP2
70953;SDS011;58618;47.490;8.736;2023-04-06T00:02:19;3.05;;;2.30;;
70953;SDS011;58618;47.490;8.736;2023-04-06T00:05:07;2.90;;;2.33;;
70953;SDS011;58618;47.490;8.736;2023-04-06T00:07:55;3.40;;;1.77;;
70953;SDS011;58618;47.490;8.736;2023-04-06T00:10:42;2.53;;;2.13;;
70953;SDS011;58618;47.490;8.736;2023-04-06T00:13:29;5.85;;;2.47;;
70953;SDS011;58618;47.490;8.736;2023-04-06T00:16:18;3.15;;;2.20;;
70953;SDS011;58618;47.490;8.736;2023-04-06T00:19:06;4.03;;;1.87;;
70953;SDS011;58618;47.490;8.736;2023-04-06T00:21:54;4.78;;;2.35;;
70953;SDS011;58618;47.490;8.736;2023-04-06T00:24:41;2.65;;;1.83;;
70953;SDS011;58618;47.490;8.736;2023-04-06T00:27:29;5.90;;;2.70;;
70953;SDS011;58618;47.490;8.736;2023-04-06T00:30:16;3.05;;;1.80;;
70953;SDS011;58618;47.490;8.736;2023-04-06T00:33:05;3.33;;;2.17;;
70953;SDS011;58618;47.490;8.736;2023-04-06T00:35:52;2.17;;;1.42;;
70953;SDS011;58618;47.490;8.736;2023-04-06T00:38:40;3.92;;;2.10;;
70953;SDS011;58618;47.490;8.736;2023-04-06T00:41:27;2.88;;;2.00;;
70953;SDS011;58618;47.490;8.736;2023-04-06T00:44:15;2.58;;;2.33;;
70953;SDS011;58618;47.490;8.736;2023-04-06T00:47:02;2.50;;;1.63;;
70953;SDS011;58618;47.490;8.736;2023-04-06T00:49:51;5.13;;;1.88;;
70953;SDS011;58618;47.490;8.736;2023-04-06T00:52:39;5.82;;;1.98;;
70953;SDS011;58618;47.490;8.736;2023-04-06T00:55:26;2.50;;;1.83;;
70953;SDS011;58618;47.490;8.736;2023-04-06T00:58:14;2.00;;;1.85;;
70953;SDS011;58618;47.490;8.736;2023-04-06T01:01:01;5.90;;;2.03;;
70953;SDS011;58618;47.490;8.736;2023-04-06T01:03:49;3.28;;;1.88;;
70953;SDS011;58618;47.490;8.736;2023-04-06T01:06:38;1.65;;;1.25;;
70953;SDS011;58618;47.490;8.736;2023-04-06T01:09:27;3.63;;;1.75;;
70953;SDS011;58618;47.490;8.736;2023-04-06T01:12:14;2.60;;;1.92;;
70953;SDS011;58618;47.490;8.736;2023-04-06T01:15:01;1.87;;;1.53;;
70953;SDS011;58618;47.490;8.736;2023-04-06T01:17:49;2.65;;;1.83;;
70953;SDS011;58618;47.490;8.736;2023-04-06T01:20:37;2.50;;;1.35;;
70953;SDS011;58618;47.490;8.736;2023-04-06T01:23:26;2.95;;;1.83;;
70953;SDS011;58618;47.490;8.736;2023-04-06T01:26:13;3.40;;;2.20;;
70953;SDS011;58618;47.490;8.736;2023-04-06T01:29:01;2.73;;;1.27;;
70953;SDS011;58618;47.490;8.736;2023-04-06T01:31:49;6.15;;;2.35;;
70953;SDS011;58618;47.490;8.736;2023-04-06T01:34:37;2.55;;;2.05;;
70953;SDS011;58618;47.490;8.736;2023-04-06T01:37:24;3.08;;;1.90;;
70953;SDS011;58618;47.490;8.736;2023-04-06T01:40:13;3.28;;;2.03;;
70953;SDS011;58618;47.490;8.736;2023-04-06T01:43:01;4.83;;;3.03;;
70953;SDS011;58618;47.490;8.736;2023-04-06T01:45:48;2.78;;;2.38;;
70953;SDS011;58618;47.490;8.736;2023-04-06T01:48:36;3.67;;;2.08;;
70953;SDS011;58618;47.490;8.736;2023-04-06T01:51:24;2.88;;;1.77;;
70953;SDS011;58618;47.490;8.736;2023-04-06T01:54:12;3.17;;;2.10;;
70953;SDS011;58618;47.490;8.736;2023-04-06T01:57:01;1.93;;;1.53;;
70953;SDS011;58618;47.490;8.736;2023-04-06T01:59:49;3.13;;;1.80;;
70953;SDS011;58618;47.490;8.736;2023-04-06T02:02:36;2.15;;;1.60;;
70953;SDS011;58618;47.490;8.736;2023-04-06T02:05:24;4.93;;;2.42;;
70953;SDS011;58618;47.490;8.736;2023-04-06T02:08:12;2.75;;;1.98;;
70953;SDS011;58618;47.490;8.736;2023-04-06T02:10:59;2.10;;;1.90;;
70953;SDS011;58618;47.490;8.736;2023-04-06T02:13:48;3.95;;;1.88;;
70953;SDS011;58618;47.490;8.736;2023-04-06T02:16:35;4.32;;;1.92;;
70953;SDS011;58618;47.490;8.736;2023-04-06T02:19:23;2.33;;;1.90;;
70953;SDS011;58618;47.490;8.736;2023-04-06T02:22:10;4.03;;;2.35;;
70953;SDS011;58618;47.490;8.736;2023-04-06T02:24:58;2.27;;;1.43;;
70953;SDS011;58618;47.490;8.736;2023-04-06T02:27:45;3.13;;;2.15;;
70953;SDS011;58618;47.490;8.736;2023-04-06T02:30:34;2.83;;;2.10;;
70953;SDS011;58618;47.490;8.736;2023-04-06T02:33:21;3.65;;;2.30;;
70953;SDS011;58618;47.490;8.736;2023-04-06T02:36:09;2.55;;;2.03;;
70953;SDS011;58618;47.490;8.736;2023-04-06T02:38:56;2.13;;;1.83;;
70953;SDS011;58618;47.490;8.736;2023-04-06T02:41:44;2.83;;;1.65;;
70953;SDS011;58618;47.490;8.736;2023-04-06T02:44:31;2.80;;;2.08;;
70953;SDS011;58618;47.490;8.736;2023-04-06T02:47:20;4.07;;;1.83;;
70953;SDS011;58618;47.490;8.736;2023-04-06T02:50:07;2.17;;;1.40;;
70953;SDS011;58618;47.490;8.736;2023-04-06T02:52:56;1.67;;;1.37;;
70953;SDS011;58618;47.490;8.736;2023-04-06T02:55:43;1.80;;;1.42;;
70953;SDS011;58618;47.490;8.736;2023-04-06T02:58:31;2.75;;;2.20;;
70953;SDS011;58618;47.490;8.736;2023-04-06T03:01:18;5.68;;;1.50;;
70953;SDS011;58618;47.490;8.736;2023-04-06T03:04:07;3.50;;;1.50;;
70953;SDS011;58618;47.490;8.736;2023-04-06T03:06:54;2.60;;;1.73;;
70953;SDS011;58618;47.490;8.736;2023-04-06T03:09:42;1.42;;;1.23;;
70953;SDS011;58618;47.490;8.736;2023-04-06T03:12:29;2.42;;;2.08;;
70953;SDS011;58618;47.490;8.736;2023-04-06T03:15:17;2.75;;;1.80;;
70953;SDS011;58618;47.490;8.736;2023-04-06T03:18:04;3.05;;;2.35;;
70953;SDS011;58618;47.490;8.736;2023-04-06T03:20:53;2.30;;;1.73;;
70953;SDS011;58618;47.490;8.736;2023-04-06T03:23:40;2.47;;;1.80;;
70953;SDS011;58618;47.490;8.736;2023-04-06T03:26:28;3.60;;;2.03;;
70953;SDS011;58618;47.490;8.736;2023-04-06T03:29:15;7.07;;;1.50;;
70953;SDS011;58618;47.490;8.736;2023-04-06T03:32:02;2.92;;;1.98;;
70953;SDS011;58618;47.490;8.736;2023-04-06T03:34:50;3.47;;;1.80;;
70953;SDS011;58618;47.490;8.736;2023-04-06T03:37:39;2.40;;;1.57;;
70953;SDS011;58618;47.490;8.736;2023-04-06T03:40:27;4.35;;;2.35;;
70953;SDS011;58618;47.490;8.736;2023-04-06T03:43:14;1.52;;;1.15;;
70953;SDS011;58618;47.490;8.736;2023-04-06T03:46:01;3.63;;;1.90;;
70953;SDS011;58618;47.490;8.736;2023-04-06T03:48:49;1.65;;;1.38;;
70953;SDS011;58618;47.490;8.736;2023-04-06T03:51:36;1.57;;;1.07;;
70953;SDS011;58618;47.490;8.736;2023-04-06T03:54:25;3.22;;;2.05;;
70953;SDS011;58618;47.490;8.736;2023-04-06T03:57:13;1.75;;;1.30;;
70953;SDS011;58618;47.490;8.736;2023-04-06T04:00:00;3.83;;;2.30;;
70953;SDS011;58618;47.490;8.736;2023-04-06T04:02:48;2.58;;;1.70;;
70953;SDS011;58618;47.490;8.736;2023-04-06T04:05:35;1.80;;;1.60;;
70953;SDS011;58618;47.490;8.736;2023-04-06T04:08:24;2.20;;;1.38;;
70953;SDS011;58618;47.490;8.736;2023-04-06T04:11:13;3.45;;;2.30;;
70953;SDS011;58618;47.490;8.736;2023-04-06T04:14:01;4.90;;;1.92;;
70953;SDS011;58618;47.490;8.736;2023-04-06T04:16:49;2.67;;;1.85;;
70953;SDS011;58618;47.490;8.736;2023-04-06T04:19:36;4.97;;;2.10;;
70953;SDS011;58618;47.490;8.736;2023-04-06T04:22:24;3.20;;;1.83;;
70953;SDS011;58618;47.490;8.736;2023-04-06T04:25:11;3.78;;;2.25;;
70953;SDS011;58618;47.490;8.736;2023-04-06T04:28:00;1.50;;;1.30;;
70953;SDS011;58618;47.490;8.736;2023-04-06T04:30:48;3.03;;;2.00;;
70953;SDS011;58618;47.490;8.736;2023-04-06T04:33:37;5.33;;;1.97;;
70953;SDS011;58618;47.490;8.736;2023-04-06T04:36:24;2.80;;;1.58;;
70953;SDS011;58618;47.490;8.736;2023-04-06T04:39:12;1.83;;;1.15;;
70953;SDS011;58618;47.490;8.736;2023-04-06T04:41:59;1.20;;;0.95;;
70953;SDS011;58618;47.490;8.736;2023-04-06T04:44:48;2.10;;;1.42;;
70953;SDS011;58618;47.490;8.736;2023-04-06T04:47:35;1.43;;;1.00;;
70953;SDS011;58618;47.490;8.736;2023-04-06T04:50:23;4.85;;;1.92;;
70953;SDS011;58618;47.490;8.736;2023-04-06T04:53:13;7.90;;;1.83;;
70953;SDS011;58618;47.490;8.736;2023-04-06T04:56:01;2.20;;;1.85;;
70953;SDS011;58618;47.490;8.736;2023-04-06T04:58:48;3.20;;;1.92;;
70953;SDS011;58618;47.490;8.736;2023-04-06T05:01:37;3.50;;;2.27;;
70953;SDS011;58618;47.490;8.736;2023-04-06T05:04:24;1.63;;;1.33;;
70953;SDS011;58618;47.490;8.736;2023-04-06T05:07:12;2.83;;;2.17;;
70953;SDS011;58618;47.490;8.736;2023-04-06T05:10:01;1.95;;;1.65;;
70953;SDS011;58618;47.490;8.736;2023-04-06T05:12:48;3.55;;;2.05;;
70953;SDS011;58618;47.490;8.736;2023-04-06T05:15:36;2.60;;;1.97;;
70953;SDS011;58618;47.490;8.736;2023-04-06T05:18:26;4.70;;;1.77;;
70953;SDS011;58618;47.490;8.736;2023-04-06T05:21:14;3.33;;;1.77;;
70953;SDS011;58618;47.490;8.736;2023-04-06T05:24:02;2.28;;;1.60;;
70953;SDS011;58618;47.490;8.736;2023-04-06T05:26:49;2.45;;;2.22;;
70953;SDS011;58618;47.490;8.736;2023-04-06T05:29:36;3.33;;;2.03;;
70953;SDS011;58618;47.490;8.736;2023-04-06T05:32:24;1.83;;;1.57;;
70953;SDS011;58618;47.490;8.736;2023-04-06T05:35:13;1.65;;;1.50;;
70953;SDS011;58618;47.490;8.736;2023-04-06T05:38:01;1.88;;;1.35;;
70953;SDS011;58618;47.490;8.736;2023-04-06T05:40:48;3.05;;;1.92;;
70953;SDS011;58618;47.490;8.736;2023-04-06T05:43:36;3.45;;;1.73;;
70953;SDS011;58618;47.490;8.736;2023-04-06T05:46:23;3.70;;;2.03;;
70953;SDS011;58618;47.490;8.736;2023-04-06T05:49:11;2.30;;;1.75;;
70953;SDS011;58618;47.490;8.736;2023-04-06T05:51:59;2.60;;;1.60;;
70953;SDS011;58618;47.490;8.736;2023-04-06T05:54:47;2.78;;;1.77;;
70953;SDS011;58618;47.490;8.736;2023-04-06T05:57:35;1.42;;;1.33;;
70953;SDS011;58618;47.490;8.736;2023-04-06T06:00:22;2.23;;;1.70;;
70953;SDS011;58618;47.490;8.736;2023-04-06T06:03:10;3.10;;;2.53;;
70953;SDS011;58618;47.490;8.736;2023-04-06T06:06:01;3.90;;;2.67;;
70953;SDS011;58618;47.490;8.736;2023-04-06T06:08:51;4.85;;;2.65;;
70953;SDS011;58618;47.490;8.736;2023-04-06T06:11:39;3.00;;;2.30;;
70953;SDS011;58618;47.490;8.736;2023-04-06T06:14:26;5.47;;;2.80;;
70953;SDS011;58618;47.490;8.736;2023-04-06T06:17:14;6.47;;;3.15;;
70953;SDS011;58618;47.490;8.736;2023-04-06T06:20:01;4.75;;;2.75;;
70953;SDS011;58618;47.490;8.736;2023-04-06T06:22:49;6.10;;;3.40;;
70953;SDS011;58618;47.490;8.736;2023-04-06T06:25:38;6.13;;;3.03;;
70953;SDS011;58618;47.490;8.736;2023-04-06T06:28:26;5.23;;;3.40;;
70953;SDS011;58618;47.490;8.736;2023-04-06T06:31:13;5.80;;;3.45;;
70953;SDS011;58618;47.490;8.736;2023-04-06T06:34:01;7.80;;;4.07;;
70953;SDS011;58618;47.490;8.736;2023-04-06T06:36:48;4.82;;;3.33;;
70953;SDS011;58618;47.490;8.736;2023-04-06T06:39:37;5.53;;;2.92;;
70953;SDS011;58618;47.490;8.736;2023-04-06T06:42:25;5.83;;;3.73;;
70953;SDS011;58618;47.490;8.736;2023-04-06T06:45:13;5.05;;;3.53;;
70953;SDS011;58618;47.490;8.736;2023-04-06T06:48:01;5.75;;;3.53;;
70953;SDS011;58618;47.490;8.736;2023-04-06T06:50:48;8.00;;;4.18;;
70953;SDS011;58618;47.490;8.736;2023-04-06T06:53:36;6.50;;;3.72;;
70953;SDS011;58618;47.490;8.736;2023-04-06T06:56:23;5.70;;;3.33;;
70953;SDS011;58618;47.490;8.736;2023-04-06T06:59:13;5.82;;;3.78;;
70953;SDS011;58618;47.490;8.736;2023-04-06T07:02:01;6.75;;;4.20;;
70953;SDS011;58618;47.490;8.736;2023-04-06T07:04:49;5.00;;;3.63;;
70953;SDS011;58618;47.490;8.736;2023-04-06T07:07:36;5.60;;;3.97;;
70953;SDS011;58618;47.490;8.736;2023-04-06T07:10:24;5.33;;;3.83;;
70953;SDS011;58618;47.490;8.736;2023-04-06T07:13:11;6.15;;;4.10;;
70953;SDS011;58618;47.490;8.736;2023-04-06T07:16:05;7.28;;;4.32;;
70953;SDS011;58618;47.490;8.736;2023-04-06T07:18:53;6.35;;;4.13;;
70953;SDS011;58618;47.490;8.736;2023-04-06T07:21:40;5.93;;;4.20;;
70953;SDS011;58618;47.490;8.736;2023-04-06T07:24:27;6.73;;;4.80;;
70953;SDS011;58618;47.490;8.736;2023-04-06T07:27:15;7.68;;;5.13;;
70953;SDS011;58618;47.490;8.736;2023-04-06T07:30:03;6.75;;;4.22;;
70953;SDS011;58618;47.490;8.736;2023-04-06T07:32:52;5.95;;;4.40;;
70953;SDS011;58618;47.490;8.736;2023-04-06T07:35:41;7.35;;;4.60;;
70953;SDS011;58618;47.490;8.736;2023-04-06T07:38:28;5.93;;;3.97;;
70953;SDS011;58618;47.490;8.736;2023-04-06T07:41:16;7.40;;;5.00;;
70953;SDS011;58618;47.490;8.736;2023-04-06T07:44:03;7.68;;;4.60;;
70953;SDS011;58618;47.490;8.736;2023-04-06T07:46:51;7.13;;;4.50;;
70953;SDS011;58618;47.490;8.736;2023-04-06T07:49:40;7.07;;;4.22;;
70953;SDS011;58618;47.490;8.736;2023-04-06T07:52:27;6.60;;;4.43;;
70953;SDS011;58618;47.490;8.736;2023-04-06T07:55:14;9.18;;;4.50;;
70953;SDS011;58618;47.490;8.736;2023-04-06T07:58:02;7.20;;;4.40;;
70953;SDS011;58618;47.490;8.736;2023-04-06T08:00:49;6.55;;;4.20;;
70953;SDS011;58618;47.490;8.736;2023-04-06T08:03:37;6.18;;;4.20;;
70953;SDS011;58618;47.490;8.736;2023-04-06T08:06:26;6.27;;;4.13;;
70953;SDS011;58618;47.490;8.736;2023-04-06T08:09:14;6.45;;;3.92;;
70953;SDS011;58618;47.490;8.736;2023-04-06T08:12:01;6.57;;;4.20;;
70953;SDS011;58618;47.490;8.736;2023-04-06T08:14:49;5.90;;;3.92;;
70953;SDS011;58618;47.490;8.736;2023-04-06T08:17:36;7.43;;;3.65;;
70953;SDS011;58618;47.490;8.736;2023-04-06T08:20:23;7.23;;;3.90;;
70953;SDS011;58618;47.490;8.736;2023-04-06T08:23:12;5.80;;;4.03;;
70953;SDS011;58618;47.490;8.736;2023-04-06T08:26:00;6.22;;;3.67;;
70953;SDS011;58618;47.490;8.736;2023-04-06T08:28:47;7.07;;;4.05;;
70953;SDS011;58618;47.490;8.736;2023-04-06T08:31:35;5.38;;;3.85;;
70953;SDS011;58618;47.490;8.736;2023-04-06T08:34:22;6.37;;;4.17;;
70953;SDS011;58618;47.490;8.736;2023-04-06T08:37:10;6.00;;;3.97;;
70953;SDS011;58618;47.490;8.736;2023-04-06T08:39:59;6.35;;;3.90;;
70953;SDS011;58618;47.490;8.736;2023-04-06T08:42:49;6.70;;;4.10;;
70953;SDS011;58618;47.490;8.736;2023-04-06T08:45:40;5.70;;;3.40;;
70953;SDS011;58618;47.490;8.736;2023-04-06T08:48:27;4.93;;;3.40;;
70953;SDS011;58618;47.490;8.736;2023-04-06T08:51:15;6.60;;;3.42;;
70953;SDS011;58618;47.490;8.736;2023-04-06T08:54:02;6.55;;;4.07;;
70953;SDS011;58618;47.490;8.736;2023-04-06T08:56:51;6.63;;;3.95;;
70953;SDS011;58618;47.490;8.736;2023-04-06T08:59:42;7.57;;;3.65;;
70953;SDS011;58618;47.490;8.736;2023-04-06T09:02:30;6.03;;;3.67;;
70953;SDS011;58618;47.490;8.736;2023-04-06T09:05:18;6.88;;;4.03;;
70953;SDS011;58618;47.490;8.736;2023-04-06T09:08:06;9.77;;;4.13;;
70953;SDS011;58618;47.490;8.736;2023-04-06T09:10:53;6.15;;;3.75;;
70953;SDS011;58618;47.490;8.736;2023-04-06T09:13:46;6.32;;;3.65;;
70953;SDS011;58618;47.490;8.736;2023-04-06T09:16:38;6.47;;;3.47;;
70953;SDS011;58618;47.490;8.736;2023-04-06T09:19:26;6.18;;;3.53;;
70953;SDS011;58618;47.490;8.736;2023-04-06T09:22:13;5.63;;;3.50;;
70953;SDS011;58618;47.490;8.736;2023-04-06T09:25:01;9.05;;;3.67;;
70953;SDS011;58618;47.490;8.736;2023-04-06T09:27:49;5.88;;;3.75;;
70953;SDS011;58618;47.490;8.736;2023-04-06T09:30:48;7.23;;;3.30;;
70953;SDS011;58618;47.490;8.736;2023-04-06T09:33:37;5.30;;;2.97;;
70953;SDS011;58618;47.490;8.736;2023-04-06T09:36:31;6.28;;;3.90;;
70953;SDS011;58618;47.490;8.736;2023-04-06T09:39:20;5.93;;;3.38;;
70953;SDS011;58618;47.490;8.736;2023-04-06T09:42:09;6.90;;;3.60;;
70953;SDS011;58618;47.490;8.736;2023-04-06T09:44:58;5.33;;;2.93;;
70953;SDS011;58618;47.490;8.736;2023-04-06T09:47:47;5.97;;;3.33;;
70953;SDS011;58618;47.490;8.736;2023-04-06T09:50:35;5.00;;;3.10;;
70953;SDS011;58618;47.490;8.736;2023-04-06T09:53:23;6.97;;;3.20;;
70953;SDS011;58618;47.490;8.736;2023-04-06T09:56:13;5.40;;;3.28;;
70953;SDS011;58618;47.490;8.736;2023-04-06T09:59:08;8.20;;;2.87;;
70953;SDS011;58618;47.490;8.736;2023-04-06T10:01:58;6.25;;;3.25;;
70953;SDS011;58618;47.490;8.736;2023-04-06T10:04:49;4.97;;;2.90;;
70953;SDS011;58618;47.490;8.736;2023-04-06T10:07:40;6.07;;;2.92;;
70953;SDS011;58618;47.490;8.736;2023-04-06T10:10:29;4.93;;;2.80;;
70953;SDS011;58618;47.490;8.736;2023-04-06T10:13:17;6.90;;;2.80;;
70953;SDS011;58618;47.490;8.736;2023-04-06T10:16:06;6.25;;;2.80;;
70953;SDS011;58618;47.490;8.736;2023-04-06T10:18:56;5.93;;;3.20;;
70953;SDS011;58618;47.490;8.736;2023-04-06T10:21:51;6.00;;;3.30;;
70953;SDS011;58618;47.490;8.736;2023-04-06T10:24:42;6.18;;;3.28;;
70953;SDS011;58618;47.490;8.736;2023-04-06T10:27:30;7.37;;;3.40;;
70953;SDS011;58618;47.490;8.736;2023-04-06T10:30:19;5.35;;;3.28;;
70953;SDS011;58618;47.490;8.736;2023-04-06T10:33:12;6.13;;;3.65;;
70953;SDS011;58618;47.490;8.736;2023-04-06T10:36:08;5.53;;;2.90;;
70953;SDS011;58618;47.490;8.736;2023-04-06T10:38:58;4.43;;;2.60;;
70953;SDS011;58618;47.490;8.736;2023-04-06T10:41:48;4.70;;;2.90;;
70953;SDS011;58618;47.490;8.736;2023-04-06T10:44:41;4.97;;;3.00;;
70953;SDS011;58618;47.490;8.736;2023-04-06T10:47:29;5.85;;;3.10;;
70953;SDS011;58618;47.490;8.736;2023-04-06T10:50:25;4.95;;;2.83;;
70953;SDS011;58618;47.490;8.736;2023-04-06T10:53:20;5.20;;;2.40;;
70953;SDS011;58618;47.490;8.736;2023-04-06T10:56:10;5.07;;;2.53;;
70953;SDS011;58618;47.490;8.736;2023-04-06T10:58:59;3.90;;;2.30;;
70953;SDS011;58618;47.490;8.736;2023-04-06T11:01:47;4.43;;;2.60;;
70953;SDS011;58618;47.490;8.736;2023-04-06T11:04:34;3.97;;;2.65;;
70953;SDS011;58618;47.490;8.736;2023-04-06T11:07:22;4.88;;;2.70;;
70953;SDS011;58618;47.490;8.736;2023-04-06T11:10:11;5.27;;;2.73;;
70953;SDS011;58618;47.490;8.736;2023-04-06T11:12:59;4.13;;;2.80;;
70953;SDS011;58618;47.490;8.736;2023-04-06T11:15:47;4.50;;;2.40;;
70953;SDS011;58618;47.490;8.736;2023-04-06T11:18:35;5.20;;;2.80;;
70953;SDS011;58618;47.490;8.736;2023-04-06T11:21:32;5.60;;;2.60;;
70953;SDS011;58618;47.490;8.736;2023-04-06T11:24:21;4.47;;;2.33;;
70953;SDS011;58618;47.490;8.736;2023-04-06T11:27:09;4.35;;;2.30;;
70953;SDS011;58618;47.490;8.736;2023-04-06T11:29:58;3.55;;;2.38;;
70953;SDS011;58618;47.490;8.736;2023-04-06T11:32:46;3.88;;;2.17;;
70953;SDS011;58618;47.490;8.736;2023-04-06T11:35:33;4.18;;;2.25;;
70953;SDS011;58618;47.490;8.736;2023-04-06T11:38:21;5.33;;;2.63;;
70953;SDS011;58618;47.490;8.736;2023-04-06T11:41:09;4.20;;;2.30;;
70953;SDS011;58618;47.490;8.736;2023-04-06T11:43:56;4.55;;;2.25;;
70953;SDS011;58618;47.490;8.736;2023-04-06T11:46:52;3.90;;;2.17;;
70953;SDS011;58618;47.490;8.736;2023-04-06T11:49:41;2.83;;;1.90;;
70953;SDS011;58618;47.490;8.736;2023-04-06T11:52:30;4.30;;;2.70;;
70953;SDS011;58618;47.490;8.736;2023-04-06T11:55:18;6.47;;;2.95;;
70953;SDS011;58618;47.490;8.736;2023-04-06T11:58:05;5.30;;;2.20;;
70953;SDS011;58618;47.490;8.736;2023-04-06T12:00:53;5.25;;;2.40;;
70953;SDS011;58618;47.490;8.736;2023-04-06T12:03:42;4.57;;;2.70;;
70953;SDS011;58618;47.490;8.736;2023-04-06T12:06:29;4.80;;;2.50;;
70953;SDS011;58618;47.490;8.736;2023-04-06T12:09:17;7.65;;;2.60;;
70953;SDS011;58618;47.490;8.736;2023-04-06T12:12:05;3.72;;;2.35;;
70953;SDS011;58618;47.490;8.736;2023-04-06T12:14:52;4.30;;;2.60;;
70953;SDS011;58618;47.490;8.736;2023-04-06T12:17:39;4.90;;;2.70;;
70953;SDS011;58618;47.490;8.736;2023-04-06T12:20:28;4.73;;;2.33;;
70953;SDS011;58618;47.490;8.736;2023-04-06T12:23:16;5.28;;;2.85;;
70953;SDS011;58618;47.490;8.736;2023-04-06T12:26:03;4.30;;;2.40;;
70953;SDS011;58618;47.490;8.736;2023-04-06T12:28:51;4.72;;;2.65;;
70953;SDS011;58618;47.490;8.736;2023-04-06T12:31:38;3.78;;;2.20;;
70953;SDS011;58618;47.490;8.736;2023-04-06T12:34:26;3.67;;;2.30;;
70953;SDS011;58618;47.490;8.736;2023-04-06T12:37:15;5.10;;;2.50;;
70953;SDS011;58618;47.490;8.736;2023-04-06T12:40:03;4.03;;;2.55;;
70953;SDS011;58618;47.490;8.736;2023-04-06T12:42:51;4.15;;;2.65;;
70953;SDS011;58618;47.490;8.736;2023-04-06T12:45:39;4.18;;;2.40;;
70953;SDS011;58618;47.490;8.736;2023-04-06T12:48:27;3.73;;;2.53;;
70953;SDS011;58618;47.490;8.736;2023-04-06T12:51:14;5.53;;;2.72;;
70953;SDS011;58618;47.490;8.736;2023-04-06T12:54:04;4.75;;;2.67;;
70953;SDS011;58618;47.490;8.736;2023-04-06T12:56:52;4.15;;;2.55;;
70953;SDS011;58618;47.490;8.736;2023-04-06T12:59:42;5.97;;;2.63;;
70953;SDS011;58618;47.490;8.736;2023-04-06T13:02:30;4.77;;;2.50;;
70953;SDS011;58618;47.490;8.736;2023-04-06T13:05:17;5.70;;;2.60;;
70953;SDS011;58618;47.490;8.736;2023-04-06T13:08:05;4.43;;;2.60;;
70953;SDS011;58618;47.490;8.736;2023-04-06T13:10:57;5.10;;;2.75;;
70953;SDS011;58618;47.490;8.736;2023-04-06T13:13:44;4.57;;;2.60;;
70953;SDS011;58618;47.490;8.736;2023-04-06T13:16:32;6.07;;;2.40;;
70953;SDS011;58618;47.490;8.736;2023-04-06T13:19:19;4.13;;;2.67;;
70953;SDS011;58618;47.490;8.736;2023-04-06T13:22:07;4.15;;;2.60;;
70953;SDS011;58618;47.490;8.736;2023-04-06T13:24:55;3.97;;;2.53;;
70953;SDS011;58618;47.490;8.736;2023-04-06T13:27:44;4.78;;;2.53;;
70953;SDS011;58618;47.490;8.736;2023-04-06T13:30:33;4.03;;;2.40;;
70953;SDS011;58618;47.490;8.736;2023-04-06T13:33:21;5.40;;;2.60;;
70953;SDS011;58618;47.490;8.736;2023-04-06T13:36:09;4.43;;;2.72;;
70953;SDS011;58618;47.490;8.736;2023-04-06T13:38:56;6.55;;;2.88;;
70953;SDS011;58618;47.490;8.736;2023-04-06T13:41:43;4.68;;;2.55;;
70953;SDS011;58618;47.490;8.736;2023-04-06T13:44:32;3.77;;;2.20;;
70953;SDS011;58618;47.490;8.736;2023-04-06T13:47:20;4.28;;;2.60;;
70953;SDS011;58618;47.490;8.736;2023-04-06T13:50:08;6.55;;;2.90;;
70953;SDS011;58618;47.490;8.736;2023-04-06T13:52:55;4.43;;;2.10;;
70953;SDS011;58618;47.490;8.736;2023-04-06T13:55:43;3.30;;;2.30;;
70953;SDS011;58618;47.490;8.736;2023-04-06T13:58:30;3.17;;;2.07;;
70953;SDS011;58618;47.490;8.736;2023-04-06T14:01:19;4.70;;;2.63;;
70953;SDS011;58618;47.490;8.736;2023-04-06T14:04:06;5.53;;;2.60;;
70953;SDS011;58618;47.490;8.736;2023-04-06T14:06:54;5.53;;;2.80;;
70953;SDS011;58618;47.490;8.736;2023-04-06T14:09:41;6.57;;;2.83;;
70953;SDS011;58618;47.490;8.736;2023-04-06T14:12:28;5.73;;;2.83;;
70953;SDS011;58618;47.490;8.736;2023-04-06T14:15:17;5.40;;;2.80;;
70953;SDS011;58618;47.490;8.736;2023-04-06T14:18:07;8.23;;;2.97;;
70953;SDS011;58618;47.490;8.736;2023-04-06T14:20:54;3.47;;;2.20;;
70953;SDS011;58618;47.490;8.736;2023-04-06T14:23:42;4.00;;;2.47;;
70953;SDS011;58618;47.490;8.736;2023-04-06T14:26:30;5.63;;;2.60;;
70953;SDS011;58618;47.490;8.736;2023-04-06T14:29:17;5.35;;;2.92;;
70953;SDS011;58618;47.490;8.736;2023-04-06T14:32:05;5.68;;;2.50;;
70953;SDS011;58618;47.490;8.736;2023-04-06T14:34:54;4.68;;;2.03;;
70953;SDS011;58618;47.490;8.736;2023-04-06T14:37:42;4.25;;;2.50;;
70953;SDS011;58618;47.490;8.736;2023-04-06T14:40:29;6.13;;;2.77;;
70953;SDS011;58618;47.490;8.736;2023-04-06T14:43:16;6.13;;;3.00;;
70953;SDS011;58618;47.490;8.736;2023-04-06T14:46:04;4.25;;;2.75;;
70953;SDS011;58618;47.490;8.736;2023-04-06T14:48:54;4.80;;;2.55;;
70953;SDS011;58618;47.490;8.736;2023-04-06T14:51:44;5.38;;;2.88;;
70953;SDS011;58618;47.490;8.736;2023-04-06T14:54:32;3.73;;;2.43;;
70953;SDS011;58618;47.490;8.736;2023-04-06T14:57:19;6.05;;;2.85;;
70953;SDS011;58618;47.490;8.736;2023-04-06T15:00:07;4.53;;;2.60;;
70953;SDS011;58618;47.490;8.736;2023-04-06T15:02:55;5.78;;;2.70;;
70953;SDS011;58618;47.490;8.736;2023-04-06T15:05:43;4.22;;;2.35;;
70953;SDS011;58618;47.490;8.736;2023-04-06T15:08:32;4.93;;;2.60;;
70953;SDS011;58618;47.490;8.736;2023-04-06T15:11:20;2.92;;;2.08;;
70953;SDS011;58618;47.490;8.736;2023-04-06T15:14:11;3.75;;;2.10;;
70953;SDS011;58618;47.490;8.736;2023-04-06T15:16:59;3.92;;;2.17;;
70953;SDS011;58618;47.490;8.736;2023-04-06T15:19:46;4.90;;;2.28;;
70953;SDS011;58618;47.490;8.736;2023-04-06T15:22:34;3.83;;;2.20;;
70953;SDS011;58618;47.490;8.736;2023-04-06T15:25:24;3.17;;;2.10;;
70953;SDS011;58618;47.490;8.736;2023-04-06T15:28:12;4.43;;;2.30;;
70953;SDS011;58618;47.490;8.736;2023-04-06T15:30:59;4.05;;;2.30;;
70953;SDS011;58618;47.490;8.736;2023-04-06T15:33:51;3.95;;;2.28;;
70953;SDS011;58618;47.490;8.736;2023-04-06T15:36:38;4.07;;;2.23;;
70953;SDS011;58618;47.490;8.736;2023-04-06T15:39:28;5.57;;;2.30;;
70953;SDS011;58618;47.490;8.736;2023-04-06T15:42:17;5.88;;;2.25;;
70953;SDS011;58618;47.490;8.736;2023-04-06T15:45:05;4.70;;;2.40;;
70953;SDS011;58618;47.490;8.736;2023-04-06T15:47:53;4.30;;;2.50;;
70953;SDS011;58618;47.490;8.736;2023-04-06T15:50:40;4.37;;;2.53;;
70953;SDS011;58618;47.490;8.736;2023-04-06T15:53:28;5.28;;;2.70;;
70953;SDS011;58618;47.490;8.736;2023-04-06T15:56:15;6.13;;;2.78;;
70953;SDS011;58618;47.490;8.736;2023-04-06T15:59:04;6.55;;;2.70;;
70953;SDS011;58618;47.490;8.736;2023-04-06T16:01:52;4.70;;;2.35;;
70953;SDS011;58618;47.490;8.736;2023-04-06T16:04:39;6.57;;;2.80;;
70953;SDS011;58618;47.490;8.736;2023-04-06T16:07:26;4.35;;;2.45;;
70953;SDS011;58618;47.490;8.736;2023-04-06T16:10:14;5.43;;;2.50;;
70953;SDS011;58618;47.490;8.736;2023-04-06T16:13:02;4.15;;;2.33;;
70953;SDS011;58618;47.490;8.736;2023-04-06T16:15:50;3.95;;;2.47;;
70953;SDS011;58618;47.490;8.736;2023-04-06T16:18:38;5.33;;;3.00;;
70953;SDS011;58618;47.490;8.736;2023-04-06T16:21:26;5.78;;;2.42;;
70953;SDS011;58618;47.490;8.736;2023-04-06T16:24:13;7.30;;;2.97;;
70953;SDS011;58618;47.490;8.736;2023-04-06T16:27:01;6.10;;;2.47;;
70953;SDS011;58618;47.490;8.736;2023-04-06T16:29:48;6.65;;;3.10;;
70953;SDS011;58618;47.490;8.736;2023-04-06T16:32:37;5.37;;;2.67;;
70953;SDS011;58618;47.490;8.736;2023-04-06T16:35:25;3.78;;;2.65;;
70953;SDS011;58618;47.490;8.736;2023-04-06T16:38:12;5.15;;;2.42;;
70953;SDS011;58618;47.490;8.736;2023-04-06T16:41:01;5.57;;;2.75;;
70953;SDS011;58618;47.490;8.736;2023-04-06T16:43:51;9.65;;;2.95;;
70953;SDS011;58618;47.490;8.736;2023-04-06T16:46:39;6.27;;;2.40;;
70953;SDS011;58618;47.490;8.736;2023-04-06T16:49:30;3.83;;;2.20;;
70953;SDS011;58618;47.490;8.736;2023-04-06T16:52:17;4.57;;;2.50;;
70953;SDS011;58618;47.490;8.736;2023-04-06T16:55:05;3.03;;;2.10;;